sensor_id;sensor_type;location;lat;lon;timestamp;P1;durP1;ratioP1;P2;durP2;ratioP2
3567;SDS011;1798;48.486;9.232;2023-02-28T00:00:29;22.83;;;6.37;;
3567;SDS011;1798;48.486;9.232;2023-02-28T00:02:56;11.80;;;4.63;;
3567;SDS011;1798;48.486;9.232;2023-02-28T00:05:24;16.27;;;6.50;;
3567;SDS011;1798;48.486;9.232;2023-02-28T00:07:53;10.90;;;5.60;;
3567;SDS011;1798;48.486;9.232;2023-02-28T00:10:21;11.77;;;5.57;;
3567;SDS011;1798;48.486;9.232;2023-02-28T00:12:50;9.77;;;5.07;;
3567;SDS011;1798;48.486;9.232;2023-02-28T00:15:18;11.03;;;6.17;;
3567;SDS011;1798;48.486;9.232;2023-02-28T00:17:45;15.00;;;5.40;;
3567;SDS011;1798;48.486;9.232;2023-02-28T00:20:12;12.77;;;6.57;;
3567;SDS011;1798;48.486;9.232;2023-02-28T00:22:40;13.20;;;6.80;;
3567;SDS011;1798;48.486;9.232;2023-02-28T00:25:10;13.50;;;6.00;;
3567;SDS011;1798;48.486;9.232;2023-02-28T00:27:38;13.63;;;6.70;;
3567;SDS011;1798;48.486;9.232;2023-02-28T00:30:07;15.20;;;6.90;;
3567;SDS011;1798;48.486;9.232;2023-02-28T00:32:36;12.47;;;5.40;;
3567;SDS011;1798;48.486;9.232;2023-02-28T00:35:03;11.17;;;6.30;;
3567;SDS011;1798;48.486;9.232;2023-02-28T00:37:30;10.10;;;5.23;;
3567;SDS011;1798;48.486;9.232;2023-02-28T00:39:57;14.50;;;6.43;;
3567;SDS011;1798;48.486;9.232;2023-02-28T00:42:25;10.43;;;5.30;;
3567;SDS011;1798;48.486;9.232;2023-02-28T00:44:52;14.63;;;6.17;;
3567;SDS011;1798;48.486;9.232;2023-02-28T00:47:19;9.90;;;4.70;;
3567;SDS011;1798;48.486;9.232;2023-02-28T00:49:45;9.73;;;5.90;;
3567;SDS011;1798;48.486;9.232;2023-02-28T00:52:12;9.97;;;5.50;;
3567;SDS011;1798;48.486;9.232;2023-02-28T00:54:39;19.23;;;5.67;;
3567;SDS011;1798;48.486;9.232;2023-02-28T00:57:06;12.30;;;6.40;;
3567;SDS011;1798;48.486;9.232;2023-02-28T00:59:34;12.33;;;6.60;;
3567;SDS011;1798;48.486;9.232;2023-02-28T01:02:01;15.13;;;6.17;;
3567;SDS011;1798;48.486;9.232;2023-02-28T01:04:27;10.87;;;5.40;;
3567;SDS011;1798;48.486;9.232;2023-02-28T01:06:54;16.67;;;6.60;;
3567;SDS011;1798;48.486;9.232;2023-02-28T01:09:21;10.67;;;5.20;;
3567;SDS011;1798;48.486;9.232;2023-02-28T01:11:48;9.90;;;6.10;;
3567;SDS011;1798;48.486;9.232;2023-02-28T01:14:15;13.17;;;6.20;;
3567;SDS011;1798;48.486;9.232;2023-02-28T01:16:44;10.20;;;5.40;;
3567;SDS011;1798;48.486;9.232;2023-02-28T01:19:11;12.47;;;6.17;;
3567;SDS011;1798;48.486;9.232;2023-02-28T01:21:38;12.37;;;6.50;;
3567;SDS011;1798;48.486;9.232;2023-02-28T01:24:05;15.03;;;6.93;;
3567;SDS011;1798;48.486;9.232;2023-02-28T01:26:32;12.83;;;5.07;;
3567;SDS011;1798;48.486;9.232;2023-02-28T01:28:59;10.20;;;6.20;;
3567;SDS011;1798;48.486;9.232;2023-02-28T01:31:25;13.10;;;7.40;;
3567;SDS011;1798;48.486;9.232;2023-02-28T01:33:54;9.87;;;6.00;;
3567;SDS011;1798;48.486;9.232;2023-02-28T01:36:21;13.20;;;6.90;;
3567;SDS011;1798;48.486;9.232;2023-02-28T01:38:49;12.63;;;6.83;;
3567;SDS011;1798;48.486;9.232;2023-02-28T01:41:17;17.10;;;7.03;;
3567;SDS011;1798;48.486;9.232;2023-02-28T01:43:52;10.00;;;5.70;;
3567;SDS011;1798;48.486;9.232;2023-02-28T01:46:20;10.00;;;5.30;;
3567;SDS011;1798;48.486;9.232;2023-02-28T01:48:48;8.90;;;5.10;;
3567;SDS011;1798;48.486;9.232;2023-02-28T01:51:19;12.23;;;5.20;;
3567;SDS011;1798;48.486;9.232;2023-02-28T01:53:51;12.53;;;6.13;;
3567;SDS011;1798;48.486;9.232;2023-02-28T01:56:20;11.70;;;6.20;;
3567;SDS011;1798;48.486;9.232;2023-02-28T01:58:48;13.30;;;6.70;;
3567;SDS011;1798;48.486;9.232;2023-02-28T02:01:15;14.30;;;6.50;;
3567;SDS011;1798;48.486;9.232;2023-02-28T02:03:46;12.80;;;5.30;;
3567;SDS011;1798;48.486;9.232;2023-02-28T02:06:13;10.30;;;5.43;;
3567;SDS011;1798;48.486;9.232;2023-02-28T02:08:41;10.00;;;5.53;;
3567;SDS011;1798;48.486;9.232;2023-02-28T02:11:08;9.37;;;5.03;;
3567;SDS011;1798;48.486;9.232;2023-02-28T02:13:41;20.50;;;7.00;;
3567;SDS011;1798;48.486;9.232;2023-02-28T02:16:21;11.23;;;5.13;;
3567;SDS011;1798;48.486;9.232;2023-02-28T02:18:53;10.77;;;6.37;;
3567;SDS011;1798;48.486;9.232;2023-02-28T02:21:36;13.20;;;5.73;;
3567;SDS011;1798;48.486;9.232;2023-02-28T02:27:17;12.13;;;5.97;;
3567;SDS011;1798;48.486;9.232;2023-02-28T02:33:01;14.70;;;6.33;;
3567;SDS011;1798;48.486;9.232;2023-02-28T02:35:32;10.70;;;5.67;;
3567;SDS011;1798;48.486;9.232;2023-02-28T02:38:05;17.33;;;6.20;;
3567;SDS011;1798;48.486;9.232;2023-02-28T02:40:35;15.93;;;6.67;;
3567;SDS011;1798;48.486;9.232;2023-02-28T02:43:07;10.87;;;5.37;;
3567;SDS011;1798;48.486;9.232;2023-02-28T02:45:36;8.80;;;5.70;;
3567;SDS011;1798;48.486;9.232;2023-02-28T02:48:06;11.27;;;6.80;;
3567;SDS011;1798;48.486;9.232;2023-02-28T02:50:38;12.93;;;5.87;;
3567;SDS011;1798;48.486;9.232;2023-02-28T02:53:08;17.17;;;5.80;;
3567;SDS011;1798;48.486;9.232;2023-02-28T02:55:37;16.33;;;7.00;;
3567;SDS011;1798;48.486;9.232;2023-02-28T02:58:07;13.30;;;6.90;;
3567;SDS011;1798;48.486;9.232;2023-02-28T03:00:37;11.10;;;6.00;;
3567;SDS011;1798;48.486;9.232;2023-02-28T03:03:07;19.93;;;5.33;;
3567;SDS011;1798;48.486;9.232;2023-02-28T03:05:39;15.10;;;6.60;;
3567;SDS011;1798;48.486;9.232;2023-02-28T03:08:08;13.30;;;7.20;;
3567;SDS011;1798;48.486;9.232;2023-02-28T03:10:36;15.43;;;5.70;;
3567;SDS011;1798;48.486;9.232;2023-02-28T03:13:10;14.33;;;6.00;;
3567;SDS011;1798;48.486;9.232;2023-02-28T03:15:43;11.70;;;5.40;;
3567;SDS011;1798;48.486;9.232;2023-02-28T03:18:21;12.30;;;6.83;;
3567;SDS011;1798;48.486;9.232;2023-02-28T03:20:54;10.97;;;5.80;;
3567;SDS011;1798;48.486;9.232;2023-02-28T03:23:29;9.50;;;5.83;;
3567;SDS011;1798;48.486;9.232;2023-02-28T03:26:01;16.17;;;6.70;;
3567;SDS011;1798;48.486;9.232;2023-02-28T03:28:31;11.47;;;6.23;;
3567;SDS011;1798;48.486;9.232;2023-02-28T03:31:03;13.30;;;5.47;;
3567;SDS011;1798;48.486;9.232;2023-02-28T03:33:35;10.50;;;5.77;;
3567;SDS011;1798;48.486;9.232;2023-02-28T03:36:07;11.10;;;5.77;;
3567;SDS011;1798;48.486;9.232;2023-02-28T03:38:35;10.97;;;5.00;;
3567;SDS011;1798;48.486;9.232;2023-02-28T03:41:06;11.90;;;6.87;;
3567;SDS011;1798;48.486;9.232;2023-02-28T03:43:38;11.07;;;6.53;;
3567;SDS011;1798;48.486;9.232;2023-02-28T03:46:08;17.27;;;6.43;;
3567;SDS011;1798;48.486;9.232;2023-02-28T03:48:38;19.43;;;7.37;;
3567;SDS011;1798;48.486;9.232;2023-02-28T03:51:08;13.17;;;7.27;;
3567;SDS011;1798;48.486;9.232;2023-02-28T03:53:37;15.10;;;7.10;;
3567;SDS011;1798;48.486;9.232;2023-02-28T03:56:07;13.53;;;6.40;;
3567;SDS011;1798;48.486;9.232;2023-02-28T03:58:38;16.93;;;6.97;;
3567;SDS011;1798;48.486;9.232;2023-02-28T04:01:08;10.90;;;6.20;;
3567;SDS011;1798;48.486;9.232;2023-02-28T04:03:38;10.57;;;5.70;;
3567;SDS011;1798;48.486;9.232;2023-02-28T04:06:05;12.53;;;6.30;;
3567;SDS011;1798;48.486;9.232;2023-02-28T04:08:35;13.07;;;6.97;;
3567;SDS011;1798;48.486;9.232;2023-02-28T04:11:03;11.37;;;6.30;;
3567;SDS011;1798;48.486;9.232;2023-02-28T04:13:32;11.43;;;5.90;;
3567;SDS011;1798;48.486;9.232;2023-02-28T04:15:59;11.67;;;6.10;;
3567;SDS011;1798;48.486;9.232;2023-02-28T04:18:26;11.80;;;5.90;;
3567;SDS011;1798;48.486;9.232;2023-02-28T04:20:52;13.50;;;7.00;;
3567;SDS011;1798;48.486;9.232;2023-02-28T04:23:20;10.13;;;6.30;;
3567;SDS011;1798;48.486;9.232;2023-02-28T04:25:47;12.43;;;6.87;;
3567;SDS011;1798;48.486;9.232;2023-02-28T04:28:16;9.47;;;5.33;;
3567;SDS011;1798;48.486;9.232;2023-02-28T04:30:42;13.87;;;6.07;;
3567;SDS011;1798;48.486;9.232;2023-02-28T04:33:09;12.80;;;6.70;;
3567;SDS011;1798;48.486;9.232;2023-02-28T04:35:36;11.10;;;6.27;;
3567;SDS011;1798;48.486;9.232;2023-02-28T04:38:03;15.77;;;7.40;;
3567;SDS011;1798;48.486;9.232;2023-02-28T04:40:31;12.00;;;6.50;;
3567;SDS011;1798;48.486;9.232;2023-02-28T04:42:58;12.97;;;7.20;;
3567;SDS011;1798;48.486;9.232;2023-02-28T04:45:24;14.17;;;7.50;;
3567;SDS011;1798;48.486;9.232;2023-02-28T04:47:51;16.90;;;6.30;;
3567;SDS011;1798;48.486;9.232;2023-02-28T04:50:18;11.83;;;7.00;;
3567;SDS011;1798;48.486;9.232;2023-02-28T04:52:45;14.37;;;7.17;;
3567;SDS011;1798;48.486;9.232;2023-02-28T04:55:11;11.27;;;5.97;;
3567;SDS011;1798;48.486;9.232;2023-02-28T04:57:40;16.20;;;7.80;;
3567;SDS011;1798;48.486;9.232;2023-02-28T05:00:08;11.10;;;6.20;;
3567;SDS011;1798;48.486;9.232;2023-02-28T05:02:36;14.77;;;6.43;;
3567;SDS011;1798;48.486;9.232;2023-02-28T05:05:04;14.13;;;6.77;;
3567;SDS011;1798;48.486;9.232;2023-02-28T05:07:30;9.13;;;5.57;;
3567;SDS011;1798;48.486;9.232;2023-02-28T05:09:57;12.80;;;6.70;;
3567;SDS011;1798;48.486;9.232;2023-02-28T05:12:24;13.83;;;6.57;;
3567;SDS011;1798;48.486;9.232;2023-02-28T05:14:52;13.20;;;7.20;;
3567;SDS011;1798;48.486;9.232;2023-02-28T05:17:19;16.50;;;7.63;;
3567;SDS011;1798;48.486;9.232;2023-02-28T05:19:45;12.57;;;7.77;;
3567;SDS011;1798;48.486;9.232;2023-02-28T05:22:12;11.43;;;7.27;;
3567;SDS011;1798;48.486;9.232;2023-02-28T05:24:39;13.57;;;6.40;;
3567;SDS011;1798;48.486;9.232;2023-02-28T05:27:07;10.83;;;7.10;;
3567;SDS011;1798;48.486;9.232;2023-02-28T05:29:34;16.53;;;6.53;;
3567;SDS011;1798;48.486;9.232;2023-02-28T05:32:08;12.93;;;7.63;;
3567;SDS011;1798;48.486;9.232;2023-02-28T05:34:36;18.93;;;7.47;;
3567;SDS011;1798;48.486;9.232;2023-02-28T05:37:02;16.70;;;7.57;;
3567;SDS011;1798;48.486;9.232;2023-02-28T05:39:29;14.20;;;7.87;;
3567;SDS011;1798;48.486;9.232;2023-02-28T05:41:56;16.60;;;6.97;;
3567;SDS011;1798;48.486;9.232;2023-02-28T05:44:23;14.73;;;6.77;;
3567;SDS011;1798;48.486;9.232;2023-02-28T05:46:50;12.93;;;7.00;;
3567;SDS011;1798;48.486;9.232;2023-02-28T05:49:18;15.23;;;8.20;;
3567;SDS011;1798;48.486;9.232;2023-02-28T05:51:45;12.93;;;6.77;;
3567;SDS011;1798;48.486;9.232;2023-02-28T05:54:12;11.60;;;6.70;;
3567;SDS011;1798;48.486;9.232;2023-02-28T05:56:39;13.93;;;7.53;;
3567;SDS011;1798;48.486;9.232;2023-02-28T05:59:09;10.90;;;6.63;;
3567;SDS011;1798;48.486;9.232;2023-02-28T06:01:36;13.03;;;7.47;;
3567;SDS011;1798;48.486;9.232;2023-02-28T06:04:05;33.50;;;13.77;;
3567;SDS011;1798;48.486;9.232;2023-02-28T06:06:35;17.63;;;8.27;;
3567;SDS011;1798;48.486;9.232;2023-02-28T06:09:02;22.20;;;9.70;;
3567;SDS011;1798;48.486;9.232;2023-02-28T06:11:29;22.63;;;8.93;;
3567;SDS011;1798;48.486;9.232;2023-02-28T06:13:57;13.03;;;7.53;;
3567;SDS011;1798;48.486;9.232;2023-02-28T06:16:24;16.90;;;8.93;;
3567;SDS011;1798;48.486;9.232;2023-02-28T06:18:54;14.73;;;7.83;;
3567;SDS011;1798;48.486;9.232;2023-02-28T06:21:21;18.70;;;8.80;;
3567;SDS011;1798;48.486;9.232;2023-02-28T06:23:50;11.60;;;6.90;;
3567;SDS011;1798;48.486;9.232;2023-02-28T06:26:17;13.40;;;7.40;;
3567;SDS011;1798;48.486;9.232;2023-02-28T06:28:45;14.63;;;7.73;;
3567;SDS011;1798;48.486;9.232;2023-02-28T06:31:12;19.23;;;8.97;;
3567;SDS011;1798;48.486;9.232;2023-02-28T06:33:40;12.73;;;7.60;;
3567;SDS011;1798;48.486;9.232;2023-02-28T06:36:07;13.20;;;6.47;;
3567;SDS011;1798;48.486;9.232;2023-02-28T06:38:36;27.23;;;9.00;;
3567;SDS011;1798;48.486;9.232;2023-02-28T06:41:04;12.87;;;7.83;;
3567;SDS011;1798;48.486;9.232;2023-02-28T06:43:32;18.07;;;10.00;;
3567;SDS011;1798;48.486;9.232;2023-02-28T06:46:02;17.27;;;9.20;;
3567;SDS011;1798;48.486;9.232;2023-02-28T06:48:30;16.40;;;9.57;;
3567;SDS011;1798;48.486;9.232;2023-02-28T06:51:03;14.80;;;8.83;;
3567;SDS011;1798;48.486;9.232;2023-02-28T06:53:30;32.70;;;10.50;;
3567;SDS011;1798;48.486;9.232;2023-02-28T06:55:57;33.43;;;11.00;;
3567;SDS011;1798;48.486;9.232;2023-02-28T06:58:26;16.90;;;8.87;;
3567;SDS011;1798;48.486;9.232;2023-02-28T07:00:53;23.80;;;9.50;;
3567;SDS011;1798;48.486;9.232;2023-02-28T07:03:21;19.30;;;8.90;;
3567;SDS011;1798;48.486;9.232;2023-02-28T07:05:48;25.30;;;11.17;;
3567;SDS011;1798;48.486;9.232;2023-02-28T07:08:15;16.43;;;10.57;;
3567;SDS011;1798;48.486;9.232;2023-02-28T07:10:41;19.63;;;11.67;;
3567;SDS011;1798;48.486;9.232;2023-02-28T07:13:09;23.30;;;11.63;;
3567;SDS011;1798;48.486;9.232;2023-02-28T07:15:38;18.53;;;11.80;;
3567;SDS011;1798;48.486;9.232;2023-02-28T07:18:05;23.50;;;12.00;;
3567;SDS011;1798;48.486;9.232;2023-02-28T07:20:32;21.83;;;11.67;;
3567;SDS011;1798;48.486;9.232;2023-02-28T07:22:58;16.90;;;10.53;;
3567;SDS011;1798;48.486;9.232;2023-02-28T07:25:26;21.13;;;12.20;;
3567;SDS011;1798;48.486;9.232;2023-02-28T07:27:54;24.90;;;11.97;;
3567;SDS011;1798;48.486;9.232;2023-02-28T07:30:21;20.87;;;11.83;;
3567;SDS011;1798;48.486;9.232;2023-02-28T07:32:49;19.83;;;11.00;;
3567;SDS011;1798;48.486;9.232;2023-02-28T07:35:16;17.43;;;11.70;;
3567;SDS011;1798;48.486;9.232;2023-02-28T07:37:43;20.70;;;10.87;;
3567;SDS011;1798;48.486;9.232;2023-02-28T07:40:10;17.50;;;9.93;;
3567;SDS011;1798;48.486;9.232;2023-02-28T07:42:38;20.80;;;10.63;;
3567;SDS011;1798;48.486;9.232;2023-02-28T07:45:06;20.30;;;12.80;;
3567;SDS011;1798;48.486;9.232;2023-02-28T07:47:36;21.93;;;12.53;;
3567;SDS011;1798;48.486;9.232;2023-02-28T07:50:05;23.73;;;12.13;;
3567;SDS011;1798;48.486;9.232;2023-02-28T07:52:33;33.47;;;14.30;;
3567;SDS011;1798;48.486;9.232;2023-02-28T07:54:59;24.20;;;12.40;;
3567;SDS011;1798;48.486;9.232;2023-02-28T07:57:26;29.57;;;14.80;;
3567;SDS011;1798;48.486;9.232;2023-02-28T07:59:53;60.37;;;26.13;;
3567;SDS011;1798;48.486;9.232;2023-02-28T08:02:20;33.47;;;17.80;;
3567;SDS011;1798;48.486;9.232;2023-02-28T08:04:47;24.07;;;13.20;;
3567;SDS011;1798;48.486;9.232;2023-02-28T08:07:16;19.97;;;12.40;;
3567;SDS011;1798;48.486;9.232;2023-02-28T08:09:43;20.50;;;11.37;;
3567;SDS011;1798;48.486;9.232;2023-02-28T08:12:10;24.03;;;13.67;;
3567;SDS011;1798;48.486;9.232;2023-02-28T08:14:37;25.23;;;12.57;;
3567;SDS011;1798;48.486;9.232;2023-02-28T08:17:04;19.10;;;12.47;;
3567;SDS011;1798;48.486;9.232;2023-02-28T08:19:31;27.97;;;13.00;;
3567;SDS011;1798;48.486;9.232;2023-02-28T08:21:58;20.90;;;12.67;;
3567;SDS011;1798;48.486;9.232;2023-02-28T08:24:26;19.60;;;12.23;;
3567;SDS011;1798;48.486;9.232;2023-02-28T08:26:54;19.97;;;11.87;;
3567;SDS011;1798;48.486;9.232;2023-02-28T08:29:20;26.83;;;13.93;;
3567;SDS011;1798;48.486;9.232;2023-02-28T08:31:47;20.03;;;12.50;;
3567;SDS011;1798;48.486;9.232;2023-02-28T08:34:15;21.17;;;12.30;;
3567;SDS011;1798;48.486;9.232;2023-02-28T08:36:43;23.30;;;13.17;;
3567;SDS011;1798;48.486;9.232;2023-02-28T08:39:10;24.30;;;12.83;;
3567;SDS011;1798;48.486;9.232;2023-02-28T08:41:39;20.50;;;13.27;;
3567;SDS011;1798;48.486;9.232;2023-02-28T08:44:06;23.20;;;11.30;;
3567;SDS011;1798;48.486;9.232;2023-02-28T08:46:33;27.83;;;14.00;;
3567;SDS011;1798;48.486;9.232;2023-02-28T08:48:59;21.00;;;11.93;;
3567;SDS011;1798;48.486;9.232;2023-02-28T08:51:27;24.00;;;12.70;;
3567;SDS011;1798;48.486;9.232;2023-02-28T08:53:55;24.03;;;13.00;;
3567;SDS011;1798;48.486;9.232;2023-02-28T08:56:24;18.60;;;12.87;;
3567;SDS011;1798;48.486;9.232;2023-02-28T08:58:54;22.03;;;13.17;;
3567;SDS011;1798;48.486;9.232;2023-02-28T09:01:22;19.80;;;12.83;;
3567;SDS011;1798;48.486;9.232;2023-02-28T09:03:50;23.47;;;14.27;;
3567;SDS011;1798;48.486;9.232;2023-02-28T09:06:19;24.47;;;11.60;;
3567;SDS011;1798;48.486;9.232;2023-02-28T09:08:46;26.00;;;12.93;;
3567;SDS011;1798;48.486;9.232;2023-02-28T09:11:13;23.27;;;13.13;;
3567;SDS011;1798;48.486;9.232;2023-02-28T09:13:40;27.00;;;13.00;;
3567;SDS011;1798;48.486;9.232;2023-02-28T09:16:10;24.17;;;12.57;;
3567;SDS011;1798;48.486;9.232;2023-02-28T09:18:37;22.70;;;13.87;;
3567;SDS011;1798;48.486;9.232;2023-02-28T09:21:05;21.70;;;13.10;;
3567;SDS011;1798;48.486;9.232;2023-02-28T09:23:32;48.40;;;14.13;;
3567;SDS011;1798;48.486;9.232;2023-02-28T09:25:59;21.90;;;13.00;;
3567;SDS011;1798;48.486;9.232;2023-02-28T09:28:26;24.37;;;12.43;;
3567;SDS011;1798;48.486;9.232;2023-02-28T09:30:53;26.37;;;14.87;;
3567;SDS011;1798;48.486;9.232;2023-02-28T09:33:23;24.17;;;13.30;;
3567;SDS011;1798;48.486;9.232;2023-02-28T09:35:50;24.53;;;13.37;;
3567;SDS011;1798;48.486;9.232;2023-02-28T09:38:19;21.70;;;13.87;;
3567;SDS011;1798;48.486;9.232;2023-02-28T09:40:47;23.00;;;12.77;;
3567;SDS011;1798;48.486;9.232;2023-02-28T09:43:15;25.60;;;13.00;;
3567;SDS011;1798;48.486;9.232;2023-02-28T09:45:44;27.37;;;15.50;;
3567;SDS011;1798;48.486;9.232;2023-02-28T09:48:16;32.30;;;17.30;;
3567;SDS011;1798;48.486;9.232;2023-02-28T09:50:46;23.83;;;14.50;;
3567;SDS011;1798;48.486;9.232;2023-02-28T09:53:16;30.87;;;14.93;;
3567;SDS011;1798;48.486;9.232;2023-02-28T09:55:47;25.67;;;13.20;;
3567;SDS011;1798;48.486;9.232;2023-02-28T09:58:18;25.17;;;14.80;;
3567;SDS011;1798;48.486;9.232;2023-02-28T10:00:54;22.33;;;14.00;;
3567;SDS011;1798;48.486;9.232;2023-02-28T10:03:25;25.53;;;13.40;;
3567;SDS011;1798;48.486;9.232;2023-02-28T10:05:58;24.50;;;14.00;;
3567;SDS011;1798;48.486;9.232;2023-02-28T10:08:29;24.57;;;14.30;;
3567;SDS011;1798;48.486;9.232;2023-02-28T10:11:00;21.57;;;13.23;;
3567;SDS011;1798;48.486;9.232;2023-02-28T10:13:31;26.77;;;13.03;;
3567;SDS011;1798;48.486;9.232;2023-02-28T10:16:01;24.20;;;13.77;;
3567;SDS011;1798;48.486;9.232;2023-02-28T10:18:30;20.60;;;12.13;;
3567;SDS011;1798;48.486;9.232;2023-02-28T10:21:06;23.17;;;14.50;;
3567;SDS011;1798;48.486;9.232;2023-02-28T10:23:35;24.77;;;15.27;;
3567;SDS011;1798;48.486;9.232;2023-02-28T10:26:07;23.57;;;14.30;;
3567;SDS011;1798;48.486;9.232;2023-02-28T10:28:36;24.13;;;14.57;;
3567;SDS011;1798;48.486;9.232;2023-02-28T10:31:03;24.50;;;12.83;;
3567;SDS011;1798;48.486;9.232;2023-02-28T10:33:30;23.70;;;13.87;;
3567;SDS011;1798;48.486;9.232;2023-02-28T10:35:59;24.93;;;13.57;;
3567;SDS011;1798;48.486;9.232;2023-02-28T10:38:31;19.90;;;13.53;;
3567;SDS011;1798;48.486;9.232;2023-02-28T10:41:06;32.93;;;12.67;;
3567;SDS011;1798;48.486;9.232;2023-02-28T10:43:34;26.10;;;13.07;;
3567;SDS011;1798;48.486;9.232;2023-02-28T10:46:02;26.37;;;13.77;;
3567;SDS011;1798;48.486;9.232;2023-02-28T10:48:31;28.57;;;12.77;;
3567;SDS011;1798;48.486;9.232;2023-02-28T10:51:00;22.77;;;14.40;;
3567;SDS011;1798;48.486;9.232;2023-02-28T10:53:31;30.53;;;14.40;;
3567;SDS011;1798;48.486;9.232;2023-02-28T10:56:01;30.33;;;15.53;;
3567;SDS011;1798;48.486;9.232;2023-02-28T10:58:30;27.70;;;14.67;;
3567;SDS011;1798;48.486;9.232;2023-02-28T11:00:58;46.87;;;13.33;;
3567;SDS011;1798;48.486;9.232;2023-02-28T11:03:30;23.80;;;14.63;;
3567;SDS011;1798;48.486;9.232;2023-02-28T11:05:58;23.23;;;13.73;;
3567;SDS011;1798;48.486;9.232;2023-02-28T11:08:31;22.53;;;13.23;;
3567;SDS011;1798;48.486;9.232;2023-02-28T11:10:58;29.63;;;14.40;;
3567;SDS011;1798;48.486;9.232;2023-02-28T11:13:27;22.60;;;13.33;;
3567;SDS011;1798;48.486;9.232;2023-02-28T11:15:57;20.90;;;13.47;;
3567;SDS011;1798;48.486;9.232;2023-02-28T11:18:27;23.57;;;12.93;;
3567;SDS011;1798;48.486;9.232;2023-02-28T11:20:56;32.67;;;13.63;;
3567;SDS011;1798;48.486;9.232;2023-02-28T11:23:24;33.30;;;14.37;;
3567;SDS011;1798;48.486;9.232;2023-02-28T11:25:54;25.60;;;12.17;;
3567;SDS011;1798;48.486;9.232;2023-02-28T11:28:25;40.27;;;15.37;;
3567;SDS011;1798;48.486;9.232;2023-02-28T11:31:00;29.10;;;14.57;;
3567;SDS011;1798;48.486;9.232;2023-02-28T11:33:29;31.23;;;15.87;;
3567;SDS011;1798;48.486;9.232;2023-02-28T11:35:57;22.70;;;14.07;;
3567;SDS011;1798;48.486;9.232;2023-02-28T11:38:25;24.10;;;14.03;;
3567;SDS011;1798;48.486;9.232;2023-02-28T11:40:59;20.70;;;12.97;;
3567;SDS011;1798;48.486;9.232;2023-02-28T11:43:35;22.50;;;14.93;;
3567;SDS011;1798;48.486;9.232;2023-02-28T11:46:13;22.07;;;13.30;;
3567;SDS011;1798;48.486;9.232;2023-02-28T11:48:49;23.70;;;14.60;;
3567;SDS011;1798;48.486;9.232;2023-02-28T11:51:21;29.20;;;15.70;;
3567;SDS011;1798;48.486;9.232;2023-02-28T11:53:55;25.83;;;13.07;;
3567;SDS011;1798;48.486;9.232;2023-02-28T11:56:44;21.20;;;13.00;;
3567;SDS011;1798;48.486;9.232;2023-02-28T11:59:18;25.53;;;12.60;;
3567;SDS011;1798;48.486;9.232;2023-02-28T12:02:00;31.20;;;14.20;;
3567;SDS011;1798;48.486;9.232;2023-02-28T12:04:41;27.93;;;14.17;;
3567;SDS011;1798;48.486;9.232;2023-02-28T12:07:18;22.77;;;13.07;;
3567;SDS011;1798;48.486;9.232;2023-02-28T12:09:53;28.70;;;15.90;;
3567;SDS011;1798;48.486;9.232;2023-02-28T12:12:30;24.80;;;15.07;;
3567;SDS011;1798;48.486;9.232;2023-02-28T12:15:13;25.47;;;14.30;;
3567;SDS011;1798;48.486;9.232;2023-02-28T12:17:48;19.50;;;13.47;;
3567;SDS011;1798;48.486;9.232;2023-02-28T12:20:23;23.90;;;14.23;;
3567;SDS011;1798;48.486;9.232;2023-02-28T12:22:54;32.93;;;14.50;;
3567;SDS011;1798;48.486;9.232;2023-02-28T12:25:38;31.83;;;16.43;;
3567;SDS011;1798;48.486;9.232;2023-02-28T12:28:15;21.27;;;14.40;;
3567;SDS011;1798;48.486;9.232;2023-02-28T12:30:45;24.97;;;13.97;;
3567;SDS011;1798;48.486;9.232;2023-02-28T12:33:16;32.33;;;14.40;;
3567;SDS011;1798;48.486;9.232;2023-02-28T12:35:48;22.43;;;13.27;;
3567;SDS011;1798;48.486;9.232;2023-02-28T12:38:17;23.63;;;13.83;;
3567;SDS011;1798;48.486;9.232;2023-02-28T12:40:47;25.83;;;13.50;;
3567;SDS011;1798;48.486;9.232;2023-02-28T12:43:18;21.00;;;12.37;;
3567;SDS011;1798;48.486;9.232;2023-02-28T12:45:47;21.17;;;13.40;;
3567;SDS011;1798;48.486;9.232;2023-02-28T12:48:18;20.67;;;13.40;;
3567;SDS011;1798;48.486;9.232;2023-02-28T12:50:47;23.53;;;13.80;;
3567;SDS011;1798;48.486;9.232;2023-02-28T12:53:17;23.67;;;13.77;;
3567;SDS011;1798;48.486;9.232;2023-02-28T12:55:48;25.70;;;15.13;;
3567;SDS011;1798;48.486;9.232;2023-02-28T12:58:23;23.20;;;12.87;;
3567;SDS011;1798;48.486;9.232;2023-02-28T13:01:09;33.27;;;16.10;;
3567;SDS011;1798;48.486;9.232;2023-02-28T13:04:03;27.97;;;14.70;;
3567;SDS011;1798;48.486;9.232;2023-02-28T13:06:45;24.40;;;15.10;;
3567;SDS011;1798;48.486;9.232;2023-02-28T13:09:23;27.67;;;14.70;;
3567;SDS011;1798;48.486;9.232;2023-02-28T13:11:50;22.33;;;13.70;;
3567;SDS011;1798;48.486;9.232;2023-02-28T13:14:27;23.00;;;12.80;;
3567;SDS011;1798;48.486;9.232;2023-02-28T13:16:57;24.60;;;15.27;;
3567;SDS011;1798;48.486;9.232;2023-02-28T13:19:26;27.90;;;14.27;;
3567;SDS011;1798;48.486;9.232;2023-02-28T13:21:54;29.03;;;13.10;;
3567;SDS011;1798;48.486;9.232;2023-02-28T13:30:00;22.00;;;12.63;;
3567;SDS011;1798;48.486;9.232;2023-02-28T13:32:31;24.13;;;14.97;;
3567;SDS011;1798;48.486;9.232;2023-02-28T13:38:24;22.70;;;13.37;;
3567;SDS011;1798;48.486;9.232;2023-02-28T13:44:00;21.77;;;12.87;;
3567;SDS011;1798;48.486;9.232;2023-02-28T13:46:31;20.40;;;13.57;;
3567;SDS011;1798;48.486;9.232;2023-02-28T13:51:46;17.27;;;12.00;;
3567;SDS011;1798;48.486;9.232;2023-02-28T13:57:05;21.93;;;12.33;;
3567;SDS011;1798;48.486;9.232;2023-02-28T13:59:42;24.47;;;14.40;;
3567;SDS011;1798;48.486;9.232;2023-02-28T14:02:25;25.70;;;14.23;;
3567;SDS011;1798;48.486;9.232;2023-02-28T14:05:02;23.43;;;14.00;;
3567;SDS011;1798;48.486;9.232;2023-02-28T14:07:32;23.23;;;16.10;;
3567;SDS011;1798;48.486;9.232;2023-02-28T14:10:03;24.13;;;14.30;;
3567;SDS011;1798;48.486;9.232;2023-02-28T14:15:28;27.33;;;12.80;;
3567;SDS011;1798;48.486;9.232;2023-02-28T14:18:03;22.63;;;13.20;;
3567;SDS011;1798;48.486;9.232;2023-02-28T14:20:33;28.53;;;14.80;;
3567;SDS011;1798;48.486;9.232;2023-02-28T14:23:03;27.20;;;14.93;;
3567;SDS011;1798;48.486;9.232;2023-02-28T14:25:36;24.33;;;15.03;;
3567;SDS011;1798;48.486;9.232;2023-02-28T14:28:10;22.00;;;14.23;;
3567;SDS011;1798;48.486;9.232;2023-02-28T14:30:42;30.67;;;14.97;;
3567;SDS011;1798;48.486;9.232;2023-02-28T14:33:24;23.50;;;14.80;;
3567;SDS011;1798;48.486;9.232;2023-02-28T14:36:04;22.03;;;12.80;;
3567;SDS011;1798;48.486;9.232;2023-02-28T14:38:36;23.10;;;14.13;;
3567;SDS011;1798;48.486;9.232;2023-02-28T14:41:12;22.93;;;14.80;;
3567;SDS011;1798;48.486;9.232;2023-02-28T14:43:47;25.67;;;15.07;;
3567;SDS011;1798;48.486;9.232;2023-02-28T14:46:16;22.57;;;13.90;;
3567;SDS011;1798;48.486;9.232;2023-02-28T14:48:46;24.20;;;13.10;;
3567;SDS011;1798;48.486;9.232;2023-02-28T14:51:13;24.40;;;12.83;;
3567;SDS011;1798;48.486;9.232;2023-02-28T14:53:46;42.33;;;15.50;;
3567;SDS011;1798;48.486;9.232;2023-02-28T14:56:22;29.83;;;13.63;;
3567;SDS011;1798;48.486;9.232;2023-02-28T14:59:00;23.67;;;13.23;;
3567;SDS011;1798;48.486;9.232;2023-02-28T15:01:27;24.83;;;13.23;;
3567;SDS011;1798;48.486;9.232;2023-02-28T15:03:59;25.73;;;13.00;;
3567;SDS011;1798;48.486;9.232;2023-02-28T15:06:28;22.93;;;14.87;;
3567;SDS011;1798;48.486;9.232;2023-02-28T15:09:08;26.73;;;14.70;;
3567;SDS011;1798;48.486;9.232;2023-02-28T15:11:41;21.40;;;13.77;;
3567;SDS011;1798;48.486;9.232;2023-02-28T15:14:13;34.90;;;16.63;;
3567;SDS011;1798;48.486;9.232;2023-02-28T15:16:43;68.37;;;16.33;;
3567;SDS011;1798;48.486;9.232;2023-02-28T15:19:13;23.97;;;15.03;;
3567;SDS011;1798;48.486;9.232;2023-02-28T15:21:43;25.00;;;13.23;;
3567;SDS011;1798;48.486;9.232;2023-02-28T15:24:13;35.53;;;13.67;;
3567;SDS011;1798;48.486;9.232;2023-02-28T15:26:42;27.83;;;12.57;;
3567;SDS011;1798;48.486;9.232;2023-02-28T15:29:11;26.63;;;14.17;;
3567;SDS011;1798;48.486;9.232;2023-02-28T15:31:41;26.73;;;13.97;;
3567;SDS011;1798;48.486;9.232;2023-02-28T15:34:16;24.77;;;15.70;;
3567;SDS011;1798;48.486;9.232;2023-02-28T15:36:46;22.23;;;14.87;;